sensor_id;sensor_type;location;lat;lon;timestamp;temperature;humidity
16271;DHT22;8243;49.048;8.396;2022-10-16T00:01:15;15.80;99.90
16271;DHT22;8243;49.048;8.396;2022-10-16T00:03:42;15.80;99.90
16271;DHT22;8243;49.048;8.396;2022-10-16T00:06:09;15.80;99.90
16271;DHT22;8243;49.048;8.396;2022-10-16T00:08:36;15.80;99.90
16271;DHT22;8243;49.048;8.396;2022-10-16T00:11:08;15.80;99.90
16271;DHT22;8243;49.048;8.396;2022-10-16T00:13:35;15.80;99.90
16271;DHT22;8243;49.048;8.396;2022-10-16T00:16:01;15.80;99.90
16271;DHT22;8243;49.048;8.396;2022-10-16T00:18:28;15.70;99.90
16271;DHT22;8243;49.048;8.396;2022-10-16T00:20:54;15.70;99.90
16271;DHT22;8243;49.048;8.396;2022-10-16T00:23:20;15.80;99.90
16271;DHT22;8243;49.048;8.396;2022-10-16T00:25:57;15.70;99.90
16271;DHT22;8243;49.048;8.396;2022-10-16T00:28:23;15.70;99.90
16271;DHT22;8243;49.048;8.396;2022-10-16T00:30:49;15.70;99.90
16271;DHT22;8243;49.048;8.396;2022-10-16T00:33:14;15.70;99.90
16271;DHT22;8243;49.048;8.396;2022-10-16T00:35:40;15.70;99.90
16271;DHT22;8243;49.048;8.396;2022-10-16T00:38:05;15.70;99.90
16271;DHT22;8243;49.048;8.396;2022-10-16T00:40:31;15.60;99.90
16271;DHT22;8243;49.048;8.396;2022-10-16T00:42:57;15.60;99.90
16271;DHT22;8243;49.048;8.396;2022-10-16T00:45:23;15.60;99.90
16271;DHT22;8243;49.048;8.396;2022-10-16T00:47:51;15.70;99.90
16271;DHT22;8243;49.048;8.396;2022-10-16T00:52:50;15.60;99.90
16271;DHT22;8243;49.048;8.396;2022-10-16T00:55:17;15.60;99.90
16271;DHT22;8243;49.048;8.396;2022-10-16T00:57:44;15.60;99.90
16271;DHT22;8243;49.048;8.396;2022-10-16T01:00:13;15.70;99.90
16271;DHT22;8243;49.048;8.396;2022-10-16T01:02:39;15.70;99.90
16271;DHT22;8243;49.048;8.396;2022-10-16T01:05:05;15.70;99.90
16271;DHT22;8243;49.048;8.396;2022-10-16T01:10:17;15.70;99.90
16271;DHT22;8243;49.048;8.396;2022-10-16T01:12:51;15.70;99.90
16271;DHT22;8243;49.048;8.396;2022-10-16T01:15:36;15.80;99.90
16271;DHT22;8243;49.048;8.396;2022-10-16T01:18:07;15.80;99.90
16271;DHT22;8243;49.048;8.396;2022-10-16T01:20:38;15.80;99.90
16271;DHT22;8243;49.048;8.396;2022-10-16T01:28:24;15.80;99.90
16271;DHT22;8243;49.048;8.396;2022-10-16T01:30:56;15.80;99.90
16271;DHT22;8243;49.048;8.396;2022-10-16T01:33:33;15.80;99.90
16271;DHT22;8243;49.048;8.396;2022-10-16T01:36:05;15.80;99.90
16271;DHT22;8243;49.048;8.396;2022-10-16T01:38:38;15.80;99.90
16271;DHT22;8243;49.048;8.396;2022-10-16T01:41:10;15.70;99.90
16271;DHT22;8243;49.048;8.396;2022-10-16T01:43:45;15.70;99.90
16271;DHT22;8243;49.048;8.396;2022-10-16T01:46:13;15.70;99.90
16271;DHT22;8243;49.048;8.396;2022-10-16T01:48:41;15.60;99.90
16271;DHT22;8243;49.048;8.396;2022-10-16T01:51:10;15.60;99.90
16271;DHT22;8243;49.048;8.396;2022-10-16T01:53:37;15.60;99.90
16271;DHT22;8243;49.048;8.396;2022-10-16T01:56:07;15.60;99.90
16271;DHT22;8243;49.048;8.396;2022-10-16T01:58:37;15.60;99.90
16271;DHT22;8243;49.048;8.396;2022-10-16T02:01:07;15.60;99.90
16271;DHT22;8243;49.048;8.396;2022-10-16T02:03:36;15.60;99.90
16271;DHT22;8243;49.048;8.396;2022-10-16T02:06:03;15.60;99.90
16271;DHT22;8243;49.048;8.396;2022-10-16T02:08:29;15.60;99.90
16271;DHT22;8243;49.048;8.396;2022-10-16T02:10:57;15.60;99.90
16271;DHT22;8243;49.048;8.396;2022-10-16T02:16:06;15.50;99.90
16271;DHT22;8243;49.048;8.396;2022-10-16T02:18:32;15.50;99.90
16271;DHT22;8243;49.048;8.396;2022-10-16T02:21:07;15.50;99.90
16271;DHT22;8243;49.048;8.396;2022-10-16T02:26:13;15.30;99.90
16271;DHT22;8243;49.048;8.396;2022-10-16T02:28:46;15.30;99.90
16271;DHT22;8243;49.048;8.396;2022-10-16T02:31:16;15.20;99.90
16271;DHT22;8243;49.048;8.396;2022-10-16T02:33:44;15.30;99.90
16271;DHT22;8243;49.048;8.396;2022-10-16T02:36:11;15.30;99.90
16271;DHT22;8243;49.048;8.396;2022-10-16T02:38:38;15.30;99.90
16271;DHT22;8243;49.048;8.396;2022-10-16T02:41:04;15.20;99.90
16271;DHT22;8243;49.048;8.396;2022-10-16T02:43:30;15.20;99.90
16271;DHT22;8243;49.048;8.396;2022-10-16T02:45:55;15.10;99.90
16271;DHT22;8243;49.048;8.396;2022-10-16T02:48:21;15.10;99.90
16271;DHT22;8243;49.048;8.396;2022-10-16T02:50:46;15.10;99.90
16271;DHT22;8243;49.048;8.396;2022-10-16T02:53:12;15.20;99.90
16271;DHT22;8243;49.048;8.396;2022-10-16T02:55:37;15.10;99.90
16271;DHT22;8243;49.048;8.396;2022-10-16T02:58:03;15.10;99.90
16271;DHT22;8243;49.048;8.396;2022-10-16T03:00:28;15.20;99.90
16271;DHT22;8243;49.048;8.396;2022-10-16T03:02:54;15.20;99.90
16271;DHT22;8243;49.048;8.396;2022-10-16T03:05:20;15.20;99.90
16271;DHT22;8243;49.048;8.396;2022-10-16T03:07:45;15.20;99.90
16271;DHT22;8243;49.048;8.396;2022-10-16T03:10:11;15.30;99.90
16271;DHT22;8243;49.048;8.396;2022-10-16T03:12:36;15.30;99.90
16271;DHT22;8243;49.048;8.396;2022-10-16T03:15:02;15.30;99.90
16271;DHT22;8243;49.048;8.396;2022-10-16T03:17:28;15.30;99.90
16271;DHT22;8243;49.048;8.396;2022-10-16T03:19:53;15.20;99.90
16271;DHT22;8243;49.048;8.396;2022-10-16T03:22:19;15.20;99.90
16271;DHT22;8243;49.048;8.396;2022-10-16T03:24:44;15.20;99.90
16271;DHT22;8243;49.048;8.396;2022-10-16T03:27:10;15.20;99.90
16271;DHT22;8243;49.048;8.396;2022-10-16T03:29:35;15.20;99.90
16271;DHT22;8243;49.048;8.396;2022-10-16T03:32:01;15.20;99.90
16271;DHT22;8243;49.048;8.396;2022-10-16T03:34:27;15.20;99.90
16271;DHT22;8243;49.048;8.396;2022-10-16T03:36:53;15.20;99.90
16271;DHT22;8243;49.048;8.396;2022-10-16T03:39:19;15.20;99.90
16271;DHT22;8243;49.048;8.396;2022-10-16T03:41:45;15.10;99.90
16271;DHT22;8243;49.048;8.396;2022-10-16T03:44:12;15.20;99.90
16271;DHT22;8243;49.048;8.396;2022-10-16T03:46:37;15.20;99.90
16271;DHT22;8243;49.048;8.396;2022-10-16T03:49:03;15.10;99.90
16271;DHT22;8243;49.048;8.396;2022-10-16T03:51:28;15.00;99.90
16271;DHT22;8243;49.048;8.396;2022-10-16T03:53:54;15.00;99.90
16271;DHT22;8243;49.048;8.396;2022-10-16T03:56:19;15.10;99.90
16271;DHT22;8243;49.048;8.396;2022-10-16T03:58:45;15.10;99.90
16271;DHT22;8243;49.048;8.396;2022-10-16T04:01:11;15.10;99.90
16271;DHT22;8243;49.048;8.396;2022-10-16T04:03:36;15.10;99.90
16271;DHT22;8243;49.048;8.396;2022-10-16T04:06:02;15.00;99.90
16271;DHT22;8243;49.048;8.396;2022-10-16T04:08:28;15.00;99.90
16271;DHT22;8243;49.048;8.396;2022-10-16T04:10:53;15.10;99.90
16271;DHT22;8243;49.048;8.396;2022-10-16T04:13:19;15.10;99.90
16271;DHT22;8243;49.048;8.396;2022-10-16T04:15:45;15.10;99.90
16271;DHT22;8243;49.048;8.396;2022-10-16T04:18:11;15.10;99.90
16271;DHT22;8243;49.048;8.396;2022-10-16T04:20:36;15.10;99.90
16271;DHT22;8243;49.048;8.396;2022-10-16T04:23:02;15.20;99.90
16271;DHT22;8243;49.048;8.396;2022-10-16T04:25:28;15.20;99.90
16271;DHT22;8243;49.048;8.396;2022-10-16T04:27:54;15.20;99.90
16271;DHT22;8243;49.048;8.396;2022-10-16T04:30:20;15.30;99.90
16271;DHT22;8243;49.048;8.396;2022-10-16T04:32:50;15.20;99.90
16271;DHT22;8243;49.048;8.396;2022-10-16T04:35:17;15.30;99.90
16271;DHT22;8243;49.048;8.396;2022-10-16T04:37:43;15.30;99.90
16271;DHT22;8243;49.048;8.396;2022-10-16T04:40:08;15.30;99.90
16271;DHT22;8243;49.048;8.396;2022-10-16T04:42:34;15.30;99.90
16271;DHT22;8243;49.048;8.396;2022-10-16T04:45:00;15.40;99.90
16271;DHT22;8243;49.048;8.396;2022-10-16T04:47:25;15.40;99.90
16271;DHT22;8243;49.048;8.396;2022-10-16T04:49:51;15.40;99.90
16271;DHT22;8243;49.048;8.396;2022-10-16T04:52:16;15.40;99.90
16271;DHT22;8243;49.048;8.396;2022-10-16T04:54:42;15.40;99.90
16271;DHT22;8243;49.048;8.396;2022-10-16T04:57:10;15.40;99.90
16271;DHT22;8243;49.048;8.396;2022-10-16T04:59:36;15.40;99.90
16271;DHT22;8243;49.048;8.396;2022-10-16T05:02:01;15.40;99.90
16271;DHT22;8243;49.048;8.396;2022-10-16T05:04:27;15.30;99.90
16271;DHT22;8243;49.048;8.396;2022-10-16T05:06:52;15.30;99.90
16271;DHT22;8243;49.048;8.396;2022-10-16T05:09:18;15.30;99.90
16271;DHT22;8243;49.048;8.396;2022-10-16T05:11:44;15.30;99.90
16271;DHT22;8243;49.048;8.396;2022-10-16T05:14:09;15.20;99.90
16271;DHT22;8243;49.048;8.396;2022-10-16T05:16:35;15.20;99.90
16271;DHT22;8243;49.048;8.396;2022-10-16T05:19:00;15.20;99.90
16271;DHT22;8243;49.048;8.396;2022-10-16T05:21:26;15.20;99.90
16271;DHT22;8243;49.048;8.396;2022-10-16T05:23:53;15.20;99.90
16271;DHT22;8243;49.048;8.396;2022-10-16T05:26:20;15.20;99.90
16271;DHT22;8243;49.048;8.396;2022-10-16T05:28:46;15.20;99.90
16271;DHT22;8243;49.048;8.396;2022-10-16T05:31:12;15.20;99.90
16271;DHT22;8243;49.048;8.396;2022-10-16T05:33:38;15.20;99.90
16271;DHT22;8243;49.048;8.396;2022-10-16T05:36:05;15.10;99.90
16271;DHT22;8243;49.048;8.396;2022-10-16T05:38:31;15.10;99.90
16271;DHT22;8243;49.048;8.396;2022-10-16T05:40:56;15.20;99.90
16271;DHT22;8243;49.048;8.396;2022-10-16T05:43:22;15.30;99.90
16271;DHT22;8243;49.048;8.396;2022-10-16T05:48:20;15.30;99.90
16271;DHT22;8243;49.048;8.396;2022-10-16T05:50:46;15.30;99.90
16271;DHT22;8243;49.048;8.396;2022-10-16T05:53:11;15.30;99.90
16271;DHT22;8243;49.048;8.396;2022-10-16T05:55:37;15.30;99.90
16271;DHT22;8243;49.048;8.396;2022-10-16T05:58:02;15.30;99.90
16271;DHT22;8243;49.048;8.396;2022-10-16T06:00:28;15.40;99.90
16271;DHT22;8243;49.048;8.396;2022-10-16T06:02:53;15.40;99.90
16271;DHT22;8243;49.048;8.396;2022-10-16T06:05:19;15.30;99.90
16271;DHT22;8243;49.048;8.396;2022-10-16T06:07:45;15.20;99.90
16271;DHT22;8243;49.048;8.396;2022-10-16T06:10:10;15.10;99.90
16271;DHT22;8243;49.048;8.396;2022-10-16T06:12:36;15.10;99.90
16271;DHT22;8243;49.048;8.396;2022-10-16T06:15:01;15.10;99.90
16271;DHT22;8243;49.048;8.396;2022-10-16T06:17:27;15.20;99.90
16271;DHT22;8243;49.048;8.396;2022-10-16T06:19:52;15.20;99.90
16271;DHT22;8243;49.048;8.396;2022-10-16T06:22:18;15.30;99.90
16271;DHT22;8243;49.048;8.396;2022-10-16T06:24:43;15.30;99.90
16271;DHT22;8243;49.048;8.396;2022-10-16T06:27:09;15.30;99.90
16271;DHT22;8243;49.048;8.396;2022-10-16T06:29:34;15.40;99.90
16271;DHT22;8243;49.048;8.396;2022-10-16T06:32:00;15.40;99.90
16271;DHT22;8243;49.048;8.396;2022-10-16T06:34:25;15.40;99.90
16271;DHT22;8243;49.048;8.396;2022-10-16T06:36:51;15.40;99.90
16271;DHT22;8243;49.048;8.396;2022-10-16T06:39:16;15.40;99.90
16271;DHT22;8243;49.048;8.396;2022-10-16T06:41:42;15.40;99.90
16271;DHT22;8243;49.048;8.396;2022-10-16T06:44:08;15.40;99.90
16271;DHT22;8243;49.048;8.396;2022-10-16T06:46:34;15.50;99.90
16271;DHT22;8243;49.048;8.396;2022-10-16T06:48:59;15.40;99.90
16271;DHT22;8243;49.048;8.396;2022-10-16T06:51:25;15.40;99.90
16271;DHT22;8243;49.048;8.396;2022-10-16T06:53:55;15.40;99.90
16271;DHT22;8243;49.048;8.396;2022-10-16T06:56:25;15.50;99.90
16271;DHT22;8243;49.048;8.396;2022-10-16T06:58:52;15.60;99.90
16271;DHT22;8243;49.048;8.396;2022-10-16T07:01:19;15.60;99.90
16271;DHT22;8243;49.048;8.396;2022-10-16T07:03:46;15.70;99.90
16271;DHT22;8243;49.048;8.396;2022-10-16T07:06:14;15.80;99.90
16271;DHT22;8243;49.048;8.396;2022-10-16T07:08:43;15.80;99.90
16271;DHT22;8243;49.048;8.396;2022-10-16T07:11:11;15.80;99.90
16271;DHT22;8243;49.048;8.396;2022-10-16T07:13:38;16.00;99.90
16271;DHT22;8243;49.048;8.396;2022-10-16T07:16:08;16.20;99.90
16271;DHT22;8243;49.048;8.396;2022-10-16T07:18:34;16.40;99.90
16271;DHT22;8243;49.048;8.396;2022-10-16T07:21:07;16.60;99.90
16271;DHT22;8243;49.048;8.396;2022-10-16T07:23:33;16.80;99.90
16271;DHT22;8243;49.048;8.396;2022-10-16T07:25:59;16.90;99.90
16271;DHT22;8243;49.048;8.396;2022-10-16T07:28:24;17.00;99.90
16271;DHT22;8243;49.048;8.396;2022-10-16T07:30:50;17.10;99.90
16271;DHT22;8243;49.048;8.396;2022-10-16T07:33:16;17.20;99.90
16271;DHT22;8243;49.048;8.396;2022-10-16T07:36:07;17.40;99.90
16271;DHT22;8243;49.048;8.396;2022-10-16T07:38:33;17.40;99.90
16271;DHT22;8243;49.048;8.396;2022-10-16T07:41:05;17.40;99.90
16271;DHT22;8243;49.048;8.396;2022-10-16T07:43:32;17.40;99.90
16271;DHT22;8243;49.048;8.396;2022-10-16T07:45:58;17.60;99.90
16271;DHT22;8243;49.048;8.396;2022-10-16T07:48:26;17.70;99.90
16271;DHT22;8243;49.048;8.396;2022-10-16T07:50:52;17.80;99.90
16271;DHT22;8243;49.048;8.396;2022-10-16T07:53:17;18.00;99.90
16271;DHT22;8243;49.048;8.396;2022-10-16T07:55:43;18.10;99.90
16271;DHT22;8243;49.048;8.396;2022-10-16T07:58:09;18.10;99.90
16271;DHT22;8243;49.048;8.396;2022-10-16T08:00:36;18.00;99.90
16271;DHT22;8243;49.048;8.396;2022-10-16T08:03:02;18.00;99.90
16271;DHT22;8243;49.048;8.396;2022-10-16T08:05:29;17.90;99.90
16271;DHT22;8243;49.048;8.396;2022-10-16T08:07:56;18.00;99.90
16271;DHT22;8243;49.048;8.396;2022-10-16T08:10:24;18.20;99.90
16271;DHT22;8243;49.048;8.396;2022-10-16T08:12:51;18.30;99.90
16271;DHT22;8243;49.048;8.396;2022-10-16T08:15:17;18.20;99.90
16271;DHT22;8243;49.048;8.396;2022-10-16T08:17:43;18.30;99.90
16271;DHT22;8243;49.048;8.396;2022-10-16T08:20:12;18.40;99.90
16271;DHT22;8243;49.048;8.396;2022-10-16T08:22:39;18.80;99.90
16271;DHT22;8243;49.048;8.396;2022-10-16T08:25:05;19.00;99.90
16271;DHT22;8243;49.048;8.396;2022-10-16T08:27:32;19.10;99.90
16271;DHT22;8243;49.048;8.396;2022-10-16T08:29:57;19.10;99.90
16271;DHT22;8243;49.048;8.396;2022-10-16T08:32:23;19.00;99.90
16271;DHT22;8243;49.048;8.396;2022-10-16T08:34:48;19.00;99.90
16271;DHT22;8243;49.048;8.396;2022-10-16T08:37:14;19.00;99.90
16271;DHT22;8243;49.048;8.396;2022-10-16T08:39:40;19.00;99.90
16271;DHT22;8243;49.048;8.396;2022-10-16T08:42:23;19.10;99.90
16271;DHT22;8243;49.048;8.396;2022-10-16T08:50:29;19.20;99.90
16271;DHT22;8243;49.048;8.396;2022-10-16T08:52:55;19.20;99.90
16271;DHT22;8243;49.048;8.396;2022-10-16T08:55:49;19.30;99.90
16271;DHT22;8243;49.048;8.396;2022-10-16T08:58:20;19.40;99.90
16271;DHT22;8243;49.048;8.396;2022-10-16T09:00:48;19.50;99.90
16271;DHT22;8243;49.048;8.396;2022-10-16T09:06:50;19.70;99.90
16271;DHT22;8243;49.048;8.396;2022-10-16T09:13:00;19.90;99.90
16271;DHT22;8243;49.048;8.396;2022-10-16T09:20:42;20.00;99.90
16271;DHT22;8243;49.048;8.396;2022-10-16T09:23:17;20.00;99.90
16271;DHT22;8243;49.048;8.396;2022-10-16T09:25:48;19.90;99.90
16271;DHT22;8243;49.048;8.396;2022-10-16T09:28:16;19.80;99.90
16271;DHT22;8243;49.048;8.396;2022-10-16T09:30:42;19.60;99.90
16271;DHT22;8243;49.048;8.396;2022-10-16T09:33:10;19.50;99.90
16271;DHT22;8243;49.048;8.396;2022-10-16T09:35:41;19.50;99.90
16271;DHT22;8243;49.048;8.396;2022-10-16T09:38:08;19.40;99.90
16271;DHT22;8243;49.048;8.396;2022-10-16T09:40:36;19.80;99.90
16271;DHT22;8243;49.048;8.396;2022-10-16T09:45:59;20.80;99.90
16271;DHT22;8243;49.048;8.396;2022-10-16T09:48:37;21.00;99.90
16271;DHT22;8243;49.048;8.396;2022-10-16T09:51:05;21.50;99.90
16271;DHT22;8243;49.048;8.396;2022-10-16T09:53:40;21.90;99.90
16271;DHT22;8243;49.048;8.396;2022-10-16T09:56:06;22.10;96.90
16271;DHT22;8243;49.048;8.396;2022-10-16T09:58:32;22.30;95.30
16271;DHT22;8243;49.048;8.396;2022-10-16T10:00:58;22.30;92.20
16271;DHT22;8243;49.048;8.396;2022-10-16T10:03:39;22.10;91.50
16271;DHT22;8243;49.048;8.396;2022-10-16T10:06:27;22.60;88.50
16271;DHT22;8243;49.048;8.396;2022-10-16T10:09:04;22.90;84.50
16271;DHT22;8243;49.048;8.396;2022-10-16T10:11:44;23.20;84.50
16271;DHT22;8243;49.048;8.396;2022-10-16T10:14:37;23.00;78.70
16271;DHT22;8243;49.048;8.396;2022-10-16T10:19:41;23.20;74.10
16271;DHT22;8243;49.048;8.396;2022-10-16T10:22:43;23.70;71.00
16271;DHT22;8243;49.048;8.396;2022-10-16T10:27:50;23.20;67.90
16271;DHT22;8243;49.048;8.396;2022-10-16T10:33:41;23.60;69.60
16271;DHT22;8243;49.048;8.396;2022-10-16T10:38:38;23.10;67.80
16271;DHT22;8243;49.048;8.396;2022-10-16T10:47:27;23.20;64.00
16271;DHT22;8243;49.048;8.396;2022-10-16T10:50:12;23.00;71.00
16271;DHT22;8243;49.048;8.396;2022-10-16T10:55:46;22.70;68.50
16271;DHT22;8243;49.048;8.396;2022-10-16T11:01:08;22.70;70.60
16271;DHT22;8243;49.048;8.396;2022-10-16T11:06:40;22.70;71.10
16271;DHT22;8243;49.048;8.396;2022-10-16T11:09:13;23.00;69.40
16271;DHT22;8243;49.048;8.396;2022-10-16T11:11:42;23.00;69.80
16271;DHT22;8243;49.048;8.396;2022-10-16T11:17:06;23.30;64.70
16271;DHT22;8243;49.048;8.396;2022-10-16T11:19:41;23.40;65.10
16271;DHT22;8243;49.048;8.396;2022-10-16T11:22:17;23.50;60.50
16271;DHT22;8243;49.048;8.396;2022-10-16T11:30:24;23.80;58.30
16271;DHT22;8243;49.048;8.396;2022-10-16T11:33:15;23.90;57.10
16271;DHT22;8243;49.048;8.396;2022-10-16T11:38:41;24.20;48.60
16271;DHT22;8243;49.048;8.396;2022-10-16T11:49:31;24.00;41.80
16271;DHT22;8243;49.048;8.396;2022-10-16T11:52:20;23.90;41.40
16271;DHT22;8243;49.048;8.396;2022-10-16T11:55:13;23.80;40.20
16271;DHT22;8243;49.048;8.396;2022-10-16T11:57:46;23.90;40.30
16271;DHT22;8243;49.048;8.396;2022-10-16T12:00:23;24.00;41.20
16271;DHT22;8243;49.048;8.396;2022-10-16T12:08:14;24.80;35.70
16271;DHT22;8243;49.048;8.396;2022-10-16T12:10:42;24.60;35.40
16271;DHT22;8243;49.048;8.396;2022-10-16T12:18:43;24.30;36.60
16271;DHT22;8243;49.048;8.396;2022-10-16T12:21:11;24.20;36.60
16271;DHT22;8243;49.048;8.396;2022-10-16T12:23:59;24.40;37.40
16271;DHT22;8243;49.048;8.396;2022-10-16T12:26:26;24.30;36.70
16271;DHT22;8243;49.048;8.396;2022-10-16T12:28:53;24.40;37.70
16271;DHT22;8243;49.048;8.396;2022-10-16T12:31:20;24.80;37.10
16271;DHT22;8243;49.048;8.396;2022-10-16T12:36:30;24.40;35.00
16271;DHT22;8243;49.048;8.396;2022-10-16T12:38:56;24.30;36.10
16271;DHT22;8243;49.048;8.396;2022-10-16T12:41:33;24.20;37.00
16271;DHT22;8243;49.048;8.396;2022-10-16T12:44:00;24.10;37.00
16271;DHT22;8243;49.048;8.396;2022-10-16T12:46:39;24.20;37.90
16271;DHT22;8243;49.048;8.396;2022-10-16T12:51:42;24.20;37.80
16271;DHT22;8243;49.048;8.396;2022-10-16T13:02:38;23.70;39.60
16271;DHT22;8243;49.048;8.396;2022-10-16T13:05:46;23.80;40.30
16271;DHT22;8243;49.048;8.396;2022-10-16T13:08:38;23.70;41.40
16271;DHT22;8243;49.048;8.396;2022-10-16T13:11:27;23.60;42.20
16271;DHT22;8243;49.048;8.396;2022-10-16T13:14:20;23.50;41.30
16271;DHT22;8243;49.048;8.396;2022-10-16T13:22:24;22.90;44.90
16271;DHT22;8243;49.048;8.396;2022-10-16T13:25:22;22.90;45.20
16271;DHT22;8243;49.048;8.396;2022-10-16T13:28:04;22.90;46.50
16271;DHT22;8243;49.048;8.396;2022-10-16T13:30:38;22.80;48.50
16271;DHT22;8243;49.048;8.396;2022-10-16T13:33:14;22.70;50.20
16271;DHT22;8243;49.048;8.396;2022-10-16T13:35:53;22.70;50.60
16271;DHT22;8243;49.048;8.396;2022-10-16T13:38:21;22.70;51.50
16271;DHT22;8243;49.048;8.396;2022-10-16T13:46:06;22.50;55.40
16271;DHT22;8243;49.048;8.396;2022-10-16T13:48:33;22.30;54.60
16271;DHT22;8243;49.048;8.396;2022-10-16T13:53:33;22.20;69.40
16271;DHT22;8243;49.048;8.396;2022-10-16T13:56:07;22.10;70.50
16271;DHT22;8243;49.048;8.396;2022-10-16T13:58:33;22.10;74.70
16271;DHT22;8243;49.048;8.396;2022-10-16T14:01:01;22.00;81.90
16271;DHT22;8243;49.048;8.396;2022-10-16T14:03:28;21.90;90.60
16271;DHT22;8243;49.048;8.396;2022-10-16T14:06:03;21.60;95.20
16271;DHT22;8243;49.048;8.396;2022-10-16T14:08:31;21.50;98.90
16271;DHT22;8243;49.048;8.396;2022-10-16T14:11:00;21.60;98.20
16271;DHT22;8243;49.048;8.396;2022-10-16T14:13:37;21.40;95.30
16271;DHT22;8243;49.048;8.396;2022-10-16T14:16:07;21.40;99.10
16271;DHT22;8243;49.048;8.396;2022-10-16T14:18:34;21.30;99.90
16271;DHT22;8243;49.048;8.396;2022-10-16T14:21:07;21.10;99.90
16271;DHT22;8243;49.048;8.396;2022-10-16T14:23:38;21.10;99.90
16271;DHT22;8243;49.048;8.396;2022-10-16T14:28:37;21.10;99.90
16271;DHT22;8243;49.048;8.396;2022-10-16T14:31:24;21.20;99.90
16271;DHT22;8243;49.048;8.396;2022-10-16T14:33:50;21.40;99.90
16271;DHT22;8243;49.048;8.396;2022-10-16T14:36:17;21.40;99.90
16271;DHT22;8243;49.048;8.396;2022-10-16T14:39:06;21.50;99.90
16271;DHT22;8243;49.048;8.396;2022-10-16T14:41:44;21.80;95.50
16271;DHT22;8243;49.048;8.396;2022-10-16T14:44:11;22.10;92.60
16271;DHT22;8243;49.048;8.396;2022-10-16T14:46:39;22.30;90.00
16271;DHT22;8243;49.048;8.396;2022-10-16T14:49:20;22.50;86.10
16271;DHT22;8243;49.048;8.396;2022-10-16T14:51:59;22.60;81.70
16271;DHT22;8243;49.048;8.396;2022-10-16T14:54:50;22.80;77.10
16271;DHT22;8243;49.048;8.396;2022-10-16T14:57:18;22.80;68.90
16271;DHT22;8243;49.048;8.396;2022-10-16T14:59:45;22.60;67.70
16271;DHT22;8243;49.048;8.396;2022-10-16T15:02:29;22.40;69.20
16271;DHT22;8243;49.048;8.396;2022-10-16T15:04:56;22.20;71.50
16271;DHT22;8243;49.048;8.396;2022-10-16T15:07:22;22.20;73.40
16271;DHT22;8243;49.048;8.396;2022-10-16T15:09:48;22.20;73.20
16271;DHT22;8243;49.048;8.396;2022-10-16T15:12:14;22.20;73.20
16271;DHT22;8243;49.048;8.396;2022-10-16T15:14:39;22.20;75.60
16271;DHT22;8243;49.048;8.396;2022-10-16T15:17:05;22.10;76.00
16271;DHT22;8243;49.048;8.396;2022-10-16T15:19:30;21.90;78.40
16271;DHT22;8243;49.048;8.396;2022-10-16T15:21:56;21.80;82.10
16271;DHT22;8243;49.048;8.396;2022-10-16T15:24:22;21.80;86.20
16271;DHT22;8243;49.048;8.396;2022-10-16T15:26:48;21.80;88.60
16271;DHT22;8243;49.048;8.396;2022-10-16T15:29:15;21.70;91.20
16271;DHT22;8243;49.048;8.396;2022-10-16T15:31:40;21.70;92.20
16271;DHT22;8243;49.048;8.396;2022-10-16T15:34:09;21.60;97.40
16271;DHT22;8243;49.048;8.396;2022-10-16T15:36:37;21.60;99.90
16271;DHT22;8243;49.048;8.396;2022-10-16T15:39:04;21.50;99.90
16271;DHT22;8243;49.048;8.396;2022-10-16T15:41:30;21.30;99.90
16271;DHT22;8243;49.048;8.396;2022-10-16T15:43:56;21.30;99.90
16271;DHT22;8243;49.048;8.396;2022-10-16T15:46:23;21.20;99.90
16271;DHT22;8243;49.048;8.396;2022-10-16T15:48:50;21.10;99.90
16271;DHT22;8243;49.048;8.396;2022-10-16T15:51:16;21.10;99.90
16271;DHT22;8243;49.048;8.396;2022-10-16T15:53:42;21.10;99.90
16271;DHT22;8243;49.048;8.396;2022-10-16T15:56:10;21.00;99.90
16271;DHT22;8243;49.048;8.396;2022-10-16T15:58:36;21.10;99.90
16271;DHT22;8243;49.048;8.396;2022-10-16T16:01:02;21.00;99.90
16271;DHT22;8243;49.048;8.396;2022-10-16T16:03:29;21.00;99.90
16271;DHT22;8243;49.048;8.396;2022-10-16T16:05:55;21.00;99.90
16271;DHT22;8243;49.048;8.396;2022-10-16T16:08:21;20.90;99.90
16271;DHT22;8243;49.048;8.396;2022-10-16T16:11:01;20.90;99.90
16271;DHT22;8243;49.048;8.396;2022-10-16T16:13:27;20.80;99.90
16271;DHT22;8243;49.048;8.396;2022-10-16T16:15:53;20.60;99.90
16271;DHT22;8243;49.048;8.396;2022-10-16T16:18:18;20.50;99.90
16271;DHT22;8243;49.048;8.396;2022-10-16T16:20:44;20.30;99.90
16271;DHT22;8243;49.048;8.396;2022-10-16T16:23:09;20.20;99.90
16271;DHT22;8243;49.048;8.396;2022-10-16T16:25:35;20.10;99.90
16271;DHT22;8243;49.048;8.396;2022-10-16T16:28:01;19.90;99.90
16271;DHT22;8243;49.048;8.396;2022-10-16T16:30:27;19.70;99.90
16271;DHT22;8243;49.048;8.396;2022-10-16T16:32:52;19.50;99.90
16271;DHT22;8243;49.048;8.396;2022-10-16T16:35:18;19.30;99.90
16271;DHT22;8243;49.048;8.396;2022-10-16T16:37:43;19.10;99.90
16271;DHT22;8243;49.048;8.396;2022-10-16T16:40:09;18.90;99.90
16271;DHT22;8243;49.048;8.396;2022-10-16T16:42:35;18.90;99.90
16271;DHT22;8243;49.048;8.396;2022-10-16T16:45:00;18.70;99.90
16271;DHT22;8243;49.048;8.396;2022-10-16T16:47:26;18.60;99.90
16271;DHT22;8243;49.048;8.396;2022-10-16T16:49:51;18.50;99.90
16271;DHT22;8243;49.048;8.396;2022-10-16T16:52:17;18.50;99.90
16271;DHT22;8243;49.048;8.396;2022-10-16T16:54:43;18.40;99.90
16271;DHT22;8243;49.048;8.396;2022-10-16T16:57:16;18.30;99.90
16271;DHT22;8243;49.048;8.396;2022-10-16T16:59:42;18.20;99.90
16271;DHT22;8243;49.048;8.396;2022-10-16T17:02:08;18.10;99.90
16271;DHT22;8243;49.048;8.396;2022-10-16T17:04:34;18.10;99.90
16271;DHT22;8243;49.048;8.396;2022-10-16T17:07:00;18.10;99.90
16271;DHT22;8243;49.048;8.396;2022-10-16T17:09:26;18.10;99.90
16271;DHT22;8243;49.048;8.396;2022-10-16T17:11:52;18.10;99.90
16271;DHT22;8243;49.048;8.396;2022-10-16T17:14:17;18.00;99.90
16271;DHT22;8243;49.048;8.396;2022-10-16T17:16:43;18.10;99.90
16271;DHT22;8243;49.048;8.396;2022-10-16T17:19:14;18.00;99.90
16271;DHT22;8243;49.048;8.396;2022-10-16T17:21:41;18.00;99.90
16271;DHT22;8243;49.048;8.396;2022-10-16T17:24:07;18.00;99.90
16271;DHT22;8243;49.048;8.396;2022-10-16T17:26:33;17.90;99.90
16271;DHT22;8243;49.048;8.396;2022-10-16T17:29:02;17.80;99.90
16271;DHT22;8243;49.048;8.396;2022-10-16T17:31:30;17.90;99.90
16271;DHT22;8243;49.048;8.396;2022-10-16T17:34:00;17.80;99.90
16271;DHT22;8243;49.048;8.396;2022-10-16T17:36:27;17.80;99.90
16271;DHT22;8243;49.048;8.396;2022-10-16T17:38:58;17.80;99.90
16271;DHT22;8243;49.048;8.396;2022-10-16T17:41:26;17.70;99.90
16271;DHT22;8243;49.048;8.396;2022-10-16T17:43:51;17.70;99.90
16271;DHT22;8243;49.048;8.396;2022-10-16T17:46:19;17.70;99.90
16271;DHT22;8243;49.048;8.396;2022-10-16T17:48:47;17.70;99.90
16271;DHT22;8243;49.048;8.396;2022-10-16T17:51:16;17.70;99.90
16271;DHT22;8243;49.048;8.396;2022-10-16T17:53:42;17.70;99.90
16271;DHT22;8243;49.048;8.396;2022-10-16T17:56:10;17.70;99.90
16271;DHT22;8243;49.048;8.396;2022-10-16T17:58:36;17.60;99.90
16271;DHT22;8243;49.048;8.396;2022-10-16T18:03:42;17.60;99.90